Time,TemperatureF,DewpointF,PressureIn,WindDirection,WindDirectionDegrees,WindSpeedMPH,WindSpeedGustMPH,Humidity,HourlyPrecipIn,Conditions,Clouds,dailyrainin,SoftwareType,DateUTC
2013-06-21 00:29:00,51.0,47.3,30.18,SSE,148,0.0,1.0,87,0.00,,---,0.00,VWS V14.00,2013-06-21 04:29:00,
2013-06-21 00:59:00,51.5,48.1,30.18,NNE,20,0.0,2.0,88,0.00,,---,0.00,VWS V14.00,2013-06-21 04:59:00,
2013-06-21 01:29:00,52.6,48.8,30.17,NW,310,0.0,0.0,87,0.00,,---,0.00,VWS V14.00,2013-06-21 05:29:00,
2013-06-21 01:59:00,52.6,48.8,30.17,North,360,0.0,0.0,87,0.00,,---,0.00,VWS V14.00,2013-06-21 05:59:00,
2013-06-21 02:29:00,53.3,48.9,30.17,North,360,0.0,0.0,85,0.00,,---,0.00,VWS V14.00,2013-06-21 06:29:00,
2013-06-21 02:59:00,53.3,48.9,30.16,ENE,67,0.0,1.0,85,0.00,,---,0.00,VWS V14.00,2013-06-21 06:59:00,
2013-06-21 03:29:00,52.6,48.5,30.16,ENE,67,0.0,0.0,86,0.00,,---,0.00,VWS V14.00,2013-06-21 07:29:00,
2013-06-21 03:59:00,52.1,48.7,30.16,NNE,29,0.0,0.0,88,0.00,,---,0.00,VWS V14.00,2013-06-21 07:59:00,
2013-06-21 04:29:00,52.4,48.7,30.16,NNE,29,0.0,0.0,87,0.00,,---,0.00,VWS V14.00,2013-06-21 08:29:00,
2013-06-21 04:59:00,51.7,48.3,30.17,NNE,29,0.0,0.0,88,0.00,,---,0.00,VWS V14.00,2013-06-21 08:59:00,
2013-06-21 05:29:00,50.5,48.0,30.17,NNE,29,0.0,0.0,91,0.00,,---,0.00,VWS V14.00,2013-06-21 09:29:00,
2013-06-21 05:59:00,52.0,49.8,30.17,NNE,29,0.0,0.0,92,0.00,,---,0.00,VWS V14.00,2013-06-21 09:59:00,
2013-06-21 06:29:00,53.1,50.2,30.17,NNE,29,0.0,0.0,90,0.00,,---,0.00,VWS V14.00,2013-06-21 10:29:00,
2013-06-21 06:59:00,55.3,51.5,30.18,NW,325,0.0,0.0,87,0.00,,---,0.00,VWS V14.00,2013-06-21 10:59:00,
2013-06-21 07:29:00,58.4,52.3,30.18,SE,138,0.0,1.0,80,0.00,,---,0.00,VWS V14.00,2013-06-21 11:29:00,
2013-06-21 07:59:00,62.2,53.8,30.18,South,187,0.0,1.0,74,0.00,,---,0.00,VWS V14.00,2013-06-21 11:59:00,
2013-06-21 08:29:00,65.6,54.0,30.18,NE,47,0.0,3.0,66,0.00,,---,0.00,VWS V14.00,2013-06-21 12:29:00,
2013-06-21 08:59:00,68.3,54.3,30.20,SW,220,1.0,3.0,61,0.00,,---,0.00,VWS V14.00,2013-06-21 12:59:00,
2013-06-21 09:29:00,70.1,54.7,30.20,WNW,300,2.0,4.0,58,0.00,,---,0.00,VWS V14.00,2013-06-21 13:29:00,
2013-06-21 09:59:00,70.3,52.9,30.20,NNE,19,0.0,2.0,54,0.00,,---,0.00,VWS V14.00,2013-06-21 13:59:00,
2013-06-21 10:29:00,71.9,55.4,30.21,ESE,123,0.0,1.0,56,0.00,,---,0.00,VWS V14.00,2013-06-21 14:29:00,
2013-06-21 10:59:00,72.1,54.6,30.21,SSE,159,1.0,5.0,54,0.00,,---,0.00,VWS V14.00,2013-06-21 14:59:00,
2013-06-21 11:29:00,71.1,55.6,30.21,East,94,1.0,4.0,58,0.00,,---,0.00,VWS V14.00,2013-06-21 15:29:00,
2013-06-21 11:59:00,73.3,57.2,30.20,South,186,3.0,3.0,57,0.00,,---,0.00,VWS V14.00,2013-06-21 15:59:00,
2013-06-21 12:29:00,75.7,58.4,30.19,East,92,1.0,2.0,55,0.00,,---,0.00,VWS V14.00,2013-06-21 16:29:00,
2013-06-21 12:59:00,78.4,56.5,30.19,WNW,296,0.0,4.0,47,0.00,,---,0.00,VWS V14.00,2013-06-21 16:59:00,
2013-06-21 13:29:00,79.2,57.2,30.19,NNW,338,2.0,6.0,47,0.00,,---,0.00,VWS V14.00,2013-06-21 17:29:00,
2013-06-21 13:59:00,79.2,56.0,30.19,ESE,109,2.0,7.0,45,0.00,,---,0.00,VWS V14.00,2013-06-21 17:59:00,
2013-06-21 14:29:00,79.7,57.1,30.19,SE,132,4.0,6.0,46,0.00,,---,0.00,VWS V14.00,2013-06-21 18:29:00,
2013-06-21 14:59:00,79.4,54.3,30.18,South,169,0.0,5.0,42,0.00,,---,0.00,VWS V14.00,2013-06-21 18:59:00,
2013-06-21 15:29:00,78.3,57.6,30.18,WSW,252,1.0,2.0,49,0.00,,---,0.00,VWS V14.00,2013-06-21 19:29:00,
2013-06-21 15:59:00,77.9,54.9,30.18,SSW,212,5.0,5.0,45,0.00,,---,0.00,VWS V14.00,2013-06-21 19:59:00,
2013-06-21 16:29:00,77.5,56.9,30.17,ENE,74,1.0,2.0,49,0.00,,---,0.00,VWS V14.00,2013-06-21 20:29:00,
2013-06-21 16:59:00,76.0,57.7,30.18,NE,53,0.0,1.0,53,0.00,,---,0.00,VWS V14.00,2013-06-21 20:59:00,
2013-06-21 17:29:00,75.0,57.2,30.17,NE,38,1.0,1.0,54,0.00,,---,0.00,VWS V14.00,2013-06-21 21:29:00,
2013-06-21 17:59:00,73.9,58.2,30.17,NNW,341,0.0,2.0,58,0.00,,---,0.00,VWS V14.00,2013-06-21 21:59:00,
2013-06-21 18:29:00,72.5,58.8,30.16,WNW,290,0.0,0.0,62,0.00,,---,0.00,VWS V14.00,2013-06-21 22:29:00,
2013-06-21 18:59:00,71.6,59.7,30.16,ESE,104,1.0,2.0,66,0.00,,---,0.00,VWS V14.00,2013-06-21 22:59:00,
2013-06-21 19:29:00,69.9,59.3,30.17,SE,127,0.0,1.0,69,0.00,,---,0.00,VWS V14.00,2013-06-21 23:29:00,
2013-06-21 19:59:00,68.4,58.6,30.16,SSW,210,0.0,0.0,71,0.00,,---,0.00,VWS V14.00,2013-06-21 23:59:00,
2013-06-21 20:29:00,66.6,57.7,30.16,SSW,210,0.0,0.0,73,0.00,,---,0.00,VWS V14.00,2013-06-22 00:29:00,
2013-06-21 20:59:00,64.8,57.8,30.16,SSW,210,0.0,0.0,78,0.00,,---,0.00,VWS V14.00,2013-06-22 00:59:00,
2013-06-21 21:29:00,62.9,57.3,30.17,SSW,210,0.0,0.0,82,0.00,,---,0.00,VWS V14.00,2013-06-22 01:29:00,
2013-06-21 21:59:00,61.6,57.4,30.17,SSW,210,0.0,0.0,86,0.00,,---,0.00,VWS V14.00,2013-06-22 01:59:00,
2013-06-21 22:29:00,60.4,56.8,30.16,SSW,210,0.0,0.0,88,0.00,,---,0.00,VWS V14.00,2013-06-22 02:29:00,
2013-06-21 22:59:00,59.5,56.6,30.17,SSW,210,0.0,0.0,90,0.00,,---,0.00,VWS V14.00,2013-06-22 02:59:00,
2013-06-21 23:29:00,59.0,56.4,30.16,SSW,210,0.0,0.0,91,0.00,,---,0.00,VWS V14.00,2013-06-22 03:29:00,
2013-06-21 23:59:00,58.9,56.6,30.16,SSW,210,0.0,0.0,92,0.00,,---,0.00,VWS V14.00,2013-06-22 03:59:00,